Time;durP1;ratioP1;P1;durP2;ratioP2;P2;SDS_P1;SDS_P2;PMS_P1;PMS_P2;Temp;Humidity;BMP_temperature;BMP_pressure;BME280_temperature;BME280_humidity;BME280_pressure;Samples;Min_cycle;Max_cycle;Signal;HPM_P1;HPM_P2
2023/01/22 00:01:09;;;;;;;55.23;41.30;;;;;;;9.64;90.95;99381.03;5073366;28;20677;-55
2023/01/22 00:03:36;;;;;;;59.30;38.07;;;;;;;9.47;91.09;99356.78;5076256;28;20202;-54
2023/01/22 00:06:05;;;;;;;61.33;36.37;;;;;;;9.68;90.77;99385.38;5072320;28;20226;-55
2023/01/22 00:08:32;;;;;;;55.73;38.87;;;;;;;9.52;91.54;99400.47;5072635;28;20194;-54
2023/01/22 00:10:59;;;;;;;55.43;38.00;;;;;;;9.53;91.97;99400.50;5072262;28;20644;-55
2023/01/22 00:13:27;;;;;;;61.08;44.70;;;;;;;9.61;92.37;99414.34;5088809;28;20432;-55
2023/01/22 00:15:57;;;;;;;58.17;41.23;;;;;;;9.74;92.07;99430.81;5092242;28;20786;-55
2023/01/22 00:18:24;;;;;;;51.63;38.53;;;;;;;9.75;91.71;99438.53;5092153;28;20187;-55
2023/01/22 00:20:54;;;;;;;59.03;39.40;;;;;;;9.79;91.40;99427.50;5087867;28;22293;-56
2023/01/22 00:23:23;;;;;;;53.53;39.07;;;;;;;9.73;91.75;99417.13;5051999;28;20200;-55
2023/01/22 00:25:49;;;;;;;54.67;38.50;;;;;;;9.81;91.68;99417.25;5051396;28;20219;-55
2023/01/22 00:28:17;;;;;;;52.90;37.10;;;;;;;9.92;91.06;99413.16;5052076;28;20196;-55
2023/01/22 00:30:44;;;;;;;50.77;37.30;;;;;;;9.94;90.62;99422.63;5052049;28;20191;-55
2023/01/22 00:33:11;;;;;;;62.13;37.40;;;;;;;10.00;90.17;99421.84;5056142;28;20194;-55
2023/01/22 00:35:38;;;;;;;53.33;37.33;;;;;;;10.02;90.27;99426.22;5071808;28;20663;-54
2023/01/22 00:38:06;;;;;;;53.03;36.23;;;;;;;10.06;89.80;99424.53;5071797;28;20194;-54
2023/01/22 00:40:34;;;;;;;51.87;38.23;;;;;;;10.14;89.99;99420.44;5081070;28;20230;-54
2023/01/22 00:43:00;;;;;;;49.80;35.87;;;;;;;10.11;90.09;99427.19;5071909;28;20647;-54
2023/01/22 00:45:27;;;;;;;53.57;36.53;;;;;;;9.98;89.55;99420.97;5071756;28;20226;-54
2023/01/22 00:47:54;;;;;;;61.07;39.33;;;;;;;9.85;90.19;99425.03;5071999;28;20249;-54
2023/01/22 00:50:21;;;;;;;56.13;39.27;;;;;;;9.76;90.84;99432.56;5071650;28;20194;-54
2023/01/22 00:52:48;;;;;;;56.30;38.27;;;;;;;9.77;91.07;99438.56;5071625;28;20198;-54
2023/01/22 00:55:15;;;;;;;56.67;39.33;;;;;;;9.86;91.00;99439.56;5071731;28;20191;-54
2023/01/22 00:57:43;;;;;;;55.97;38.20;;;;;;;9.92;91.30;99449.09;5071551;28;20187;-54
2023/01/22 01:00:11;;;;;;;65.25;46.22;;;;;;;9.90;90.79;99440.50;5071257;28;20426;-54
2023/01/22 01:03:25;;;;;;;65.87;41.07;;;;;;;9.96;90.65;99446.63;5071718;28;20191;-54
2023/01/22 01:05:24;;;;;;;56.50;38.47;;;;;;;10.01;90.73;99447.56;5071562;28;20215;-54
2023/01/22 01:07:51;;;;;;;54.37;39.20;;;;;;;9.99;90.52;99445.81;5071926;28;20184;-54
2023/01/22 01:10:18;;;;;;;55.73;40.00;;;;;;;9.93;90.33;99469.66;5071400;28;20194;-54
2023/01/22 01:12:47;;;;;;;53.93;38.93;;;;;;;9.93;89.89;99469.66;5071441;28;20191;-54
2023/01/22 01:15:13;;;;;;;54.40;39.43;;;;;;;9.90;90.22;99476.44;5071533;28;20256;-54
2023/01/22 01:17:40;;;;;;;57.43;38.53;;;;;;;9.87;90.36;99487.50;5071810;28;20261;-54
2023/01/22 01:20:08;;;;;;;56.87;38.17;;;;;;;9.87;90.40;99495.22;5071228;28;20552;-54
2023/01/22 01:22:35;;;;;;;56.30;38.43;;;;;;;9.89;90.31;99505.50;5071252;28;20192;-54
2023/01/22 01:25:02;;;;;;;53.60;37.27;;;;;;;9.91;90.61;99503.84;5070716;28;20724;-55
2023/01/22 01:27:30;;;;;;;55.17;36.50;;;;;;;9.90;91.00;99513.22;5071282;28;20194;-54
2023/01/22 01:30:01;;;;;;;55.83;38.40;;;;;;;9.93;91.02;99518.44;5071318;28;20223;-53
2023/01/22 01:32:28;;;;;;;49.93;34.50;;;;;;;10.00;90.51;99514.25;5071268;28;20188;-54
2023/01/22 01:34:59;;;;;;;49.33;34.53;;;;;;;9.93;90.40;99502.16;5069067;28;20194;-56
2023/01/22 01:37:26;;;;;;;52.00;35.43;;;;;;;10.04;90.19;99513.50;5073671;28;20236;-55
2023/01/22 01:40:08;;;;;;;53.50;36.10;;;;;;;10.03;90.10;99516.88;5072054;28;20188;-55
2023/01/22 01:42:38;;;;;;;50.30;35.53;;;;;;;9.97;90.32;99519.38;5074913;28;20187;-55
2023/01/22 01:45:28;;;;;;;57.27;36.93;;;;;;;9.97;90.65;99517.63;5074885;28;20188;-54
2023/01/22 01:48:03;;;;;;;53.33;39.05;;;;;;;9.92;90.69;99503.84;5074527;28;20437;-53
2023/01/22 01:50:30;;;;;;;49.83;37.40;;;;;;;9.96;90.85;99505.66;5074738;28;20193;-55
2023/01/22 01:52:59;;;;;;;50.33;35.13;;;;;;;9.97;90.36;99498.84;5074879;28;20690;-55
2023/01/22 01:55:29;;;;;;;48.27;33.87;;;;;;;9.92;91.05;99506.41;5074756;28;20191;-53
2023/01/22 01:58:00;;;;;;;46.03;34.00;;;;;;;9.95;91.18;99490.22;5074591;28;20199;-54
2023/01/22 02:00:32;;;;;;;46.80;33.43;;;;;;;9.85;91.68;99502.03;5074540;28;20199;-54
2023/01/22 02:03:00;;;;;;;48.33;33.40;;;;;;;9.77;92.30;99495.00;5073448;28;20203;-54
2023/01/22 02:05:31;;;;;;;49.60;33.10;;;;;;;9.70;92.89;99496.59;5074287;28;20219;-53
2023/01/22 02:07:58;;;;;;;49.63;34.40;;;;;;;9.72;93.15;99488.94;5074411;28;20195;-54
2023/01/22 02:10:25;;;;;;;51.43;35.80;;;;;;;9.69;93.38;99487.19;5074433;28;20637;-54
2023/01/22 02:12:55;;;;;;;53.60;35.10;;;;;;;9.78;93.60;99495.03;5074325;28;20184;-54
2023/01/22 02:15:22;;;;;;;51.60;34.87;;;;;;;9.83;93.65;99493.41;5075155;28;20197;-54
2023/01/22 02:17:50;;;;;;;50.23;34.67;;;;;;;9.89;93.79;99490.97;5074268;28;20191;-53
2023/01/22 02:20:17;;;;;;;51.77;34.80;;;;;;;9.85;93.29;99467.78;5074256;28;20195;-54
2023/01/22 02:22:45;;;;;;;54.00;35.07;;;;;;;9.93;93.66;99487.63;5074282;28;20202;-53
2023/01/22 02:25:12;;;;;;;51.60;37.10;;;;;;;9.96;93.87;99481.69;5074022;28;20624;-54
2023/01/22 02:27:39;;;;;;;51.77;35.83;;;;;;;10.01;94.37;99482.63;5074027;28;20191;-54
2023/01/22 02:30:07;;;;;;;48.40;36.03;;;;;;;10.03;94.71;99484.38;5074271;28;20198;-54
2023/01/22 02:32:34;;;;;;;52.60;35.67;;;;;;;10.02;95.61;99480.13;5074095;28;20199;-54
2023/01/22 02:35:00;;;;;;;50.97;36.97;;;;;;;9.94;95.73;99478.25;5074310;28;20682;-54
2023/01/22 02:37:27;;;;;;;55.30;38.20;;;;;;;10.03;96.21;99481.81;5073613;28;20449;-54
2023/01/22 02:39:55;;;;;;;50.50;36.03;;;;;;;10.09;96.07;99489.63;5073502;28;20245;-54
2023/01/22 02:42:22;;;;;;;53.23;36.27;;;;;;;10.14;96.13;99500.00;5074085;28;20195;-54
2023/01/22 02:44:51;;;;;;;50.47;36.73;;;;;;;10.17;96.26;99504.34;5073865;28;20203;-54
2023/01/22 02:47:18;;;;;;;55.50;35.13;;;;;;;10.18;96.41;99493.25;5073501;28;20226;-54
2023/01/22 02:49:45;;;;;;;49.17;35.13;;;;;;;10.21;96.48;99506.13;5073358;28;20196;-54
2023/01/22 02:52:12;;;;;;;52.83;36.47;;;;;;;10.18;96.61;99500.94;5073551;28;20191;-53
2023/01/22 02:54:38;;;;;;;50.77;36.37;;;;;;;10.21;96.58;99519.84;5073692;28;20195;-54
2023/01/22 02:57:07;;;;;;;54.80;35.10;;;;;;;10.18;96.00;99519.78;5073484;28;20202;-54
2023/01/22 02:59:34;;;;;;;52.93;36.57;;;;;;;10.21;96.16;99507.00;5073806;28;20196;-54
2023/01/22 03:02:01;;;;;;;48.53;36.13;;;;;;;10.23;96.21;99502.75;5073596;28;20187;-54
2023/01/22 03:04:28;;;;;;;50.83;35.30;;;;;;;10.23;95.78;99499.31;5073422;28;20198;-54
2023/01/22 03:06:55;;;;;;;50.47;34.87;;;;;;;10.23;95.89;99522.41;5073234;28;20699;-54
2023/01/22 03:09:22;;;;;;;52.70;35.57;;;;;;;10.14;96.42;99517.09;5072799;28;20192;-54
2023/01/22 03:11:49;;;;;;;48.07;35.50;;;;;;;10.04;97.35;99513.50;5073155;28;20200;-54
2023/01/22 03:22:29;;;;;;;51.50;35.23;;;;;;;10.11;100.00;99519.63;5073295;28;20697;-54
2023/01/22 03:24:57;;;;;;;50.47;36.30;;;;;;;10.09;99.72;99527.28;5073094;28;20184;-54
2023/01/22 03:27:26;;;;;;;52.93;35.87;;;;;;;10.11;100.00;99523.03;5072994;28;20246;-54
2023/01/22 03:29:54;;;;;;;56.07;36.27;;;;;;;10.16;100.00;99518.03;5072787;28;20195;-54
2023/01/22 03:32:22;;;;;;;50.37;33.67;;;;;;;10.18;99.88;99512.06;5072849;28;20647;-54
2023/01/22 03:34:49;;;;;;;49.00;34.67;;;;;;;10.20;99.78;99512.09;5072696;28;20720;-54
2023/01/22 03:37:16;;;;;;;51.03;34.90;;;;;;;10.22;99.67;99503.56;5072942;28;20191;-54
2023/01/22 03:39:43;;;;;;;55.67;42.78;;;;;;;10.28;98.97;99503.69;5071738;28;20438;-54
2023/01/22 03:42:10;;;;;;;49.00;36.17;;;;;;;10.34;98.75;99508.06;5073249;28;20194;-54
2023/01/22 03:44:37;;;;;;;53.00;35.73;;;;;;;10.35;98.41;99513.25;5072496;28;20194;-54
2023/01/22 03:47:05;;;;;;;48.07;34.60;;;;;;;10.31;97.44;99513.16;5071516;28;20227;-54
2023/01/22 03:49:32;;;;;;;54.40;36.00;;;;;;;10.30;98.13;99524.28;5072464;28;20187;-54
2023/01/22 03:51:58;;;;;;;48.93;33.83;;;;;;;10.30;98.65;99519.13;5072557;28;20682;-54
2023/01/22 03:54:25;;;;;;;56.20;35.93;;;;;;;10.29;98.36;99527.66;5072444;28;20194;-54
2023/01/22 03:56:52;;;;;;;56.40;35.93;;;;;;;10.31;99.23;99529.44;5072367;28;20598;-54
2023/01/22 03:59:19;;;;;;;55.23;35.80;;;;;;;10.24;99.45;99519.03;5071606;28;20249;-54
2023/01/22 04:01:46;;;;;;;51.67;35.40;;;;;;;10.34;99.93;99536.31;5072087;28;20207;-55
2023/01/22 04:04:14;;;;;;;51.00;35.37;;;;;;;10.29;99.69;99541.38;5072479;28;20714;-54
2023/01/22 04:06:41;;;;;;;52.00;35.03;;;;;;;10.26;99.83;99543.88;5072193;28;20223;-54
2023/01/22 04:09:07;;;;;;;52.00;36.20;;;;;;;10.26;99.36;99538.75;5072165;28;20725;-54
2023/01/22 04:11:34;;;;;;;52.50;34.93;;;;;;;10.04;99.71;99552.88;5072038;28;20198;-54
2023/01/22 04:14:01;;;;;;;49.90;36.00;;;;;;;10.08;99.58;99551.19;5072103;28;20188;-54
2023/01/22 04:16:28;;;;;;;50.23;34.73;;;;;;;10.15;99.54;99563.38;5071769;28;20702;-54
2023/01/22 04:18:54;;;;;;;50.87;35.27;;;;;;;10.19;99.28;99570.28;5072195;28;20192;-54
2023/01/22 04:21:23;;;;;;;45.30;35.07;;;;;;;10.28;99.62;99585.00;5072052;28;20194;-54
2023/01/22 04:23:49;;;;;;;55.10;35.50;;;;;;;10.27;100.00;99581.59;5072071;28;20187;-54
2023/01/22 04:26:16;;;;;;;54.10;36.77;;;;;;;10.26;100.00;99577.28;5071939;28;20226;-54
2023/01/22 04:28:43;;;;;;;62.50;45.92;;;;;;;10.42;100.00;99591.25;5070881;28;20460;-54
2023/01/22 04:31:10;;;;;;;53.47;38.07;;;;;;;10.45;99.71;99593.88;5072143;28;20184;-54
2023/01/22 04:33:36;;;;;;;49.80;35.77;;;;;;;10.41;100.00;99599.81;5071925;28;20188;-54
2023/01/22 04:36:03;;;;;;;54.47;37.23;;;;;;;10.43;100.00;99595.56;5071192;28;20244;-54
2023/01/22 04:38:32;;;;;;;56.87;38.47;;;;;;;10.45;100.00;99611.84;5071677;28;20221;-54
2023/01/22 04:40:58;;;;;;;50.33;37.23;;;;;;;10.49;100.00;99613.66;5072355;28;20595;-54
2023/01/22 04:43:25;;;;;;;51.00;35.77;;;;;;;10.44;100.00;99616.13;5071736;28;20187;-54
2023/01/22 04:45:52;;;;;;;56.23;37.63;;;;;;;10.40;100.00;99616.06;5071501;28;20664;-55
2023/01/22 04:48:19;;;;;;;53.77;37.17;;;;;;;10.28;100.00;99606.41;5071741;28;20231;-54
2023/01/22 04:50:45;;;;;;;52.00;38.87;;;;;;;10.34;100.00;99613.34;5071720;28;20645;-54
2023/01/22 04:53:12;;;;;;;51.47;37.60;;;;;;;10.27;100.00;99620.09;5071595;28;20187;-54
2023/01/22 04:55:41;;;;;;;57.33;38.00;;;;;;;10.26;100.00;99627.75;5070759;28;20191;-54
2023/01/22 04:58:08;;;;;;;51.07;36.27;;;;;;;10.26;100.00;99628.63;5071128;28;20219;-54
2023/01/22 05:00:35;;;;;;;46.13;35.23;;;;;;;10.27;99.52;99627.81;5071585;28;20191;-54
2023/01/22 05:03:03;;;;;;;48.27;35.17;;;;;;;10.28;99.00;99628.66;5071432;28;20183;-54
2023/01/22 05:05:32;;;;;;;52.20;34.33;;;;;;;10.23;98.85;99635.41;5071488;28;20183;-54
2023/01/22 05:07:59;;;;;;;51.70;35.50;;;;;;;10.27;99.47;99650.03;5071126;28;20695;-54
2023/01/22 05:10:26;;;;;;;50.60;34.57;;;;;;;10.29;99.28;99656.06;5071466;28;20195;-54
2023/01/22 05:12:54;;;;;;;49.83;33.83;;;;;;;10.26;99.33;99654.31;5075383;28;20206;-55
2023/01/22 05:15:21;;;;;;;55.03;32.93;;;;;;;10.30;99.13;99657.81;5075751;28;20189;-54
2023/01/22 05:17:48;;;;;;;54.33;37.53;;;;;;;10.31;99.57;99655.25;5074849;28;21014;-54
2023/01/22 05:20:16;;;;;;;50.17;34.00;;;;;;;10.38;99.78;99661.41;5075288;28;20214;-55
2023/01/22 05:22:42;;;;;;;50.23;33.43;;;;;;;10.33;99.64;99660.44;5075101;28;20269;-54
2023/01/22 05:25:09;;;;;;;51.57;34.83;;;;;;;10.32;99.03;99661.25;5075180;28;20210;-54
2023/01/22 05:27:36;;;;;;;51.73;33.03;;;;;;;10.30;99.65;99657.81;5075097;28;20238;-54
2023/01/22 05:30:06;;;;;;;56.03;32.23;;;;;;;10.27;99.84;99657.75;5074881;28;20229;-54
2023/01/22 05:32:33;;;;;;;48.80;32.67;;;;;;;10.28;100.00;99662.91;5075323;28;20188;-54
2023/01/22 05:35:00;;;;;;;52.77;32.97;;;;;;;10.17;100.00;99672.09;5074987;28;20265;-54
2023/01/22 05:37:27;;;;;;;56.17;34.07;;;;;;;10.16;100.00;99677.19;5075611;28;20195;-54
2023/01/22 05:39:53;;;;;;;58.10;32.27;;;;;;;10.09;100.00;99702.72;5074795;28;20195;-54
2023/01/22 05:42:21;;;;;;;59.10;34.07;;;;;;;10.12;100.00;99693.31;5074968;28;20686;-54
2023/01/22 05:44:47;;;;;;;62.80;33.07;;;;;;;10.16;100.00;99706.31;5074760;28;20552;-54
2023/01/22 05:47:16;;;;;;;57.97;33.33;;;;;;;10.18;100.00;99698.63;5074802;28;20265;-54
2023/01/22 05:49:43;;;;;;;62.43;33.83;;;;;;;10.18;100.00;99704.63;5074766;28;20192;-54
2023/01/22 05:52:10;;;;;;;57.40;33.13;;;;;;;10.26;100.00;99704.78;5075106;28;20680;-54
2023/01/22 05:54:38;;;;;;;56.57;33.73;;;;;;;10.31;100.00;99710.88;5075168;28;20617;-53
2023/01/22 05:57:06;;;;;;;53.47;34.17;;;;;;;10.30;100.00;99712.56;5075026;28;20278;-54
2023/01/22 05:59:32;;;;;;;59.57;35.00;;;;;;;10.31;100.00;99701.47;5074509;28;20184;-54
2023/01/22 06:01:59;;;;;;;70.10;37.43;;;;;;;10.25;100.00;99691.06;5074569;28;20187;-54
2023/01/22 06:04:28;;;;;;;58.57;35.77;;;;;;;10.15;100.00;99683.16;5068108;28;20652;-54
2023/01/22 06:06:55;;;;;;;62.53;38.37;;;;;;;10.05;100.00;99679.50;5066705;28;20224;-54
2023/01/22 06:09:22;;;;;;;66.30;38.87;;;;;;;10.06;100.00;99707.78;5068190;28;20659;-54
2023/01/22 06:11:49;;;;;;;56.50;33.97;;;;;;;10.05;100.00;99718.88;5064288;28;20198;-55
2023/01/22 06:14:16;;;;;;;49.77;33.30;;;;;;;10.13;100.00;99725.91;5067698;28;20566;-54
2023/01/22 06:16:43;;;;;;;43.83;30.17;;;;;;;10.15;100.00;99726.81;5070840;28;20679;-55
2023/01/22 06:19:11;;;;;;;48.43;31.60;;;;;;;10.16;100.00;99736.25;5068817;28;20207;-54
2023/01/22 06:21:39;;;;;;;47.43;31.43;;;;;;;10.17;100.00;99732.84;5061409;28;20215;-55
2023/01/22 06:24:07;;;;;;;44.43;29.23;;;;;;;10.23;100.00;99738.09;5071671;28;20218;-54
2023/01/22 06:26:33;;;;;;;45.80;29.67;;;;;;;10.25;100.00;99741.56;5073687;28;20714;-54
2023/01/22 06:29:00;;;;;;;47.77;30.50;;;;;;;10.27;100.00;99734.78;5074019;28;20198;-55
2023/01/22 06:31:27;;;;;;;44.90;30.03;;;;;;;10.28;100.00;99742.50;5073850;28;20567;-55
2023/01/22 06:33:54;;;;;;;41.63;29.00;;;;;;;10.34;100.00;99762.31;5073585;28;20195;-54
2023/01/22 06:36:21;;;;;;;41.90;29.07;;;;;;;10.36;100.00;99763.22;5073704;28;20184;-54
2023/01/22 06:38:49;;;;;;;41.53;29.43;;;;;;;10.21;100.00;99742.34;5073792;28;20187;-55
2023/01/22 06:41:16;;;;;;;43.47;28.30;;;;;;;10.33;99.95;99784.56;5073415;28;20215;-54
2023/01/22 06:43:43;;;;;;;42.07;29.10;;;;;;;10.33;99.88;99788.84;5073680;28;20187;-54
2023/01/22 06:46:10;;;;;;;46.10;28.93;;;;;;;10.38;100.00;99785.50;5073566;28;20294;-54
2023/01/22 06:48:37;;;;;;;42.57;29.20;;;;;;;10.37;100.00;99782.94;5078057;28;20222;-58
2023/01/22 06:51:04;;;;;;;43.27;29.97;;;;;;;10.37;99.74;99788.94;5075501;28;20198;-54
2023/01/22 06:53:31;;;;;;;42.70;28.10;;;;;;;10.32;99.51;99770.00;5073474;28;20203;-55
2023/01/22 06:56:00;;;;;;;45.60;29.07;;;;;;;10.41;100.00;99772.75;5069401;28;20192;-54
2023/01/22 06:58:27;;;;;;;42.73;28.23;;;;;;;10.44;99.95;99785.66;5053236;28;20196;-54
2023/01/22 07:00:54;;;;;;;40.17;27.27;;;;;;;10.45;99.27;99787.41;5053227;28;20195;-54
2023/01/22 07:03:21;;;;;;;43.33;27.27;;;;;;;10.41;99.38;99790.72;5053275;28;20185;-54
2023/01/22 07:05:56;;;;;;;43.33;28.17;;;;;;;10.44;100.00;99784.78;5053168;28;20596;-54
2023/01/22 07:08:22;;;;;;;38.60;27.13;;;;;;;10.50;100.00;99785.78;5053017;28;20277;-54
2023/01/22 07:10:49;;;;;;;43.73;28.57;;;;;;;10.51;99.88;99784.09;5056706;28;20191;-55
2023/01/22 07:13:17;;;;;;;39.57;28.13;;;;;;;10.54;99.52;99782.47;5072613;28;20206;-54
2023/01/22 07:15:44;;;;;;;36.50;25.77;;;;;;;10.58;98.53;99793.66;5072766;28;20190;-55
2023/01/22 07:18:13;;;;;;;39.63;27.93;;;;;;;10.62;98.51;99791.19;5072850;28;20210;-54
2023/01/22 07:20:41;;;;;;;40.97;27.43;;;;;;;10.74;97.85;99794.84;5072903;28;20215;-55
2023/01/22 07:23:08;;;;;;;38.40;26.80;;;;;;;10.79;97.87;99799.25;5072664;28;20187;-55
2023/01/22 07:25:34;;;;;;;44.03;28.03;;;;;;;10.84;97.11;99804.47;5072349;28;20279;-55
2023/01/22 07:28:02;;;;;;;47.30;35.47;;;;;;;10.83;97.28;99798.47;5071346;28;20457;-55
2023/01/22 07:30:30;;;;;;;45.53;31.17;;;;;;;10.86;97.37;99798.53;5072854;28;20192;-55
2023/01/22 07:32:59;;;;;;;46.33;30.57;;;;;;;10.80;97.28;99805.22;5072452;28;20198;-54
2023/01/22 07:35:26;;;;;;;46.73;30.23;;;;;;;10.82;98.07;99812.16;5065870;28;20191;-55
2023/01/22 07:37:53;;;;;;;47.07;31.67;;;;;;;10.84;97.61;99807.91;5053478;28;20261;-55
2023/01/22 07:40:20;;;;;;;45.43;31.70;;;;;;;10.98;98.06;99815.91;5052373;28;20680;-55
2023/01/22 07:42:47;;;;;;;49.17;33.87;;;;;;;10.89;97.63;99796.00;5067642;28;20188;-55
2023/01/22 07:45:14;;;;;;;52.07;36.30;;;;;;;11.13;97.32;99831.59;5066385;28;20576;-56
2023/01/22 07:47:42;;;;;;;53.10;35.83;;;;;;;11.12;96.90;99829.91;5069147;28;20270;-55
2023/01/22 07:50:10;;;;;;;53.60;35.13;;;;;;;11.11;97.08;99833.28;5060363;28;20210;-55
2023/01/22 07:52:37;;;;;;;55.87;36.53;;;;;;;11.16;97.08;99835.13;5060503;28;20286;-56
2023/01/22 07:55:05;;;;;;;54.37;35.93;;;;;;;11.09;97.83;99837.53;5067035;28;20249;-55
2023/01/22 07:57:32;;;;;;;61.07;36.53;;;;;;;11.30;97.87;99842.22;5070726;28;20195;-55
2023/01/22 07:59:58;;;;;;;63.83;40.20;;;;;;;11.30;97.75;99842.22;5072371;28;20281;-54
2023/01/22 08:02:25;;;;;;;65.20;40.33;;;;;;;11.34;97.54;99844.91;5072069;28;20551;-55
2023/01/22 08:04:53;;;;;;;63.53;40.73;;;;;;;11.30;97.28;99855.94;5070384;28;20196;-55
2023/01/22 08:07:22;;;;;;;63.87;38.93;;;;;;;11.28;97.65;99862.78;5070183;28;20647;-55
2023/01/22 08:09:49;;;;;;;69.37;38.07;;;;;;;11.24;97.91;99860.97;5069159;28;20219;-55
2023/01/22 08:12:16;;;;;;;65.23;37.77;;;;;;;10.89;98.52;99802.84;5071888;28;20187;-55
2023/01/22 08:14:42;;;;;;;62.93;38.00;;;;;;;11.20;99.21;99860.06;5071416;28;20183;-55
2023/01/22 08:17:09;;;;;;;70.00;39.93;;;;;;;11.18;99.32;99860.84;5071165;28;20183;-55
2023/01/22 08:19:36;;;;;;;64.20;38.90;;;;;;;11.25;99.55;99868.75;5071316;28;20190;-55
2023/01/22 08:22:04;;;;;;;66.00;39.60;;;;;;;11.19;99.92;99867.75;5071114;28;20652;-55
2023/01/22 08:24:33;;;;;;;65.70;39.10;;;;;;;11.17;100.00;99860.00;5071453;28;20183;-55
2023/01/22 08:27:00;;;;;;;67.83;40.43;;;;;;;11.26;100.00;99870.44;5068205;28;20200;-55
2023/01/22 08:29:27;;;;;;;82.15;48.75;;;;;;;11.39;100.00;99875.84;5067403;28;20804;-56
2023/01/22 08:31:53;;;;;;;71.10;42.10;;;;;;;11.41;100.00;99869.00;5071615;28;20188;-56
2023/01/22 08:34:21;;;;;;;67.37;41.07;;;;;;;11.49;100.00;99872.59;5070853;28;20541;-55
2023/01/22 08:36:48;;;;;;;68.90;41.10;;;;;;;11.49;100.00;99873.47;5071293;28;20184;-55
2023/01/22 08:39:16;;;;;;;67.90;39.27;;;;;;;11.52;100.00;99876.09;5071558;28;20222;-55
2023/01/22 08:41:43;;;;;;;86.03;40.77;;;;;;;11.58;99.67;99883.06;5071646;28;20224;-55
2023/01/22 08:44:12;;;;;;;72.73;39.50;;;;;;;11.58;100.00;99883.06;5071653;28;20196;-55
2023/01/22 08:46:40;;;;;;;69.93;37.33;;;;;;;11.57;100.00;99887.34;5070968;28;20183;-55
2023/01/22 08:49:07;;;;;;;65.67;37.63;;;;;;;11.61;100.00;99889.16;5071102;28;20703;-54
2023/01/22 08:51:34;;;;;;;62.77;36.43;;;;;;;11.69;100.00;99897.03;5071450;28;20183;-55
2023/01/22 08:54:01;;;;;;;73.20;37.40;;;;;;;11.78;100.00;99892.91;5071284;28;20199;-56
2023/01/22 08:56:29;;;;;;;77.67;39.60;;;;;;;11.82;99.80;99894.69;5071509;28;20195;-55
2023/01/22 08:58:58;;;;;;;78.87;38.33;;;;;;;11.74;99.44;99896.28;5071528;28;20199;-55
2023/01/22 09:01:26;;;;;;;75.43;38.20;;;;;;;11.71;99.85;99903.94;5071483;28;20663;-54
2023/01/22 09:03:53;;;;;;;74.10;38.97;;;;;;;11.63;100.00;99907.16;5071375;28;20234;-55
2023/01/22 09:06:22;;;;;;;75.97;38.37;;;;;;;11.65;100.00;99898.63;5071908;28;20230;-55
2023/01/22 09:08:48;;;;;;;77.37;41.23;;;;;;;11.62;100.00;99897.75;5071208;28;20215;-55
2023/01/22 09:11:15;;;;;;;87.30;40.27;;;;;;;11.62;100.00;99893.44;5071704;28;20183;-55
2023/01/22 09:13:44;;;;;;;84.33;41.83;;;;;;;11.61;100.00;99893.41;5071035;28;20184;-54
2023/01/22 09:16:10;;;;;;;90.93;42.87;;;;;;;11.81;100.00;99877.50;5071077;28;20714;-54
2023/01/22 09:18:37;;;;;;;101.83;46.13;;;;;;;12.08;100.00;99871.09;5071361;28;20241;-54
2023/01/22 09:21:05;;;;;;;101.17;49.97;;;;;;;12.16;99.34;99867.81;5071056;28;20225;-54
2023/01/22 09:23:32;;;;;;;94.00;48.77;;;;;;;12.08;98.42;99876.25;5070799;28;20192;-54
2023/01/22 09:26:00;;;;;;;99.43;50.60;;;;;;;11.93;99.07;99875.97;5068857;28;20196;-54
2023/01/22 09:28:27;;;;;;;90.97;47.73;;;;;;;12.05;99.26;99881.34;5065672;28;20230;-55
2023/01/22 09:30:55;;;;;;;81.00;43.80;;;;;;;12.08;99.42;99883.97;5070636;28;20203;-55
2023/01/22 09:33:22;;;;;;;85.33;41.00;;;;;;;12.09;98.85;99880.53;5067868;28;20656;-55
2023/01/22 09:35:49;;;;;;;77.53;42.43;;;;;;;11.64;99.04;99849.72;5070198;28;20644;-55
2023/01/22 09:38:18;;;;;;;73.23;39.83;;;;;;;11.70;100.00;99873.88;5067348;28;20187;-55
2023/01/22 09:40:48;;;;;;;78.00;40.37;;;;;;;11.97;100.00;99883.81;5070073;28;20302;-54
2023/01/22 09:43:30;;;;;;;71.90;38.83;;;;;;;12.05;100.00;99883.94;5070035;28;20241;-55
2023/01/22 09:46:01;;;;;;;71.90;38.87;;;;;;;12.01;100.00;99870.13;5068224;28;20179;-56
2023/01/22 09:48:41;;;;;;;72.27;37.50;;;;;;;11.95;100.00;99864.03;5056844;28;20580;-55
2023/01/22 09:51:13;;;;;;;73.73;38.60;;;;;;;11.79;100.00;99863.75;5064684;28;20192;-56
2023/01/22 09:53:40;;;;;;;77.03;39.33;;;;;;;11.79;100.00;99861.19;5068347;28;20678;-55
2023/01/22 09:56:17;;;;;;;70.97;40.40;;;;;;;12.03;100.00;99863.28;5067692;28;20213;-55
2023/01/22 09:58:44;;;;;;;55.20;32.67;;;;;;;12.33;100.00;99868.91;5073504;28;20240;-56
2023/01/22 10:01:12;;;;;;;56.97;32.97;;;;;;;12.58;99.82;99857.25;5073264;28;20188;-55
2023/01/22 10:03:43;;;;;;;59.87;33.93;;;;;;;12.76;98.14;99857.50;5073787;28;20278;-55
2023/01/22 10:06:13;;;;;;;58.10;35.03;;;;;;;12.77;96.99;99838.59;5072641;28;20237;-57
2023/01/22 10:08:50;;;;;;;56.73;35.57;;;;;;;12.96;96.35;99847.47;5072435;28;20207;-56
2023/01/22 10:11:17;;;;;;;58.73;36.80;;;;;;;12.96;96.51;99852.63;5071403;28;20203;-55
2023/01/22 10:13:44;;;;;;;46.17;30.57;;;;;;;12.97;95.07;99854.31;5073437;28;20563;-55
2023/01/22 10:16:13;;;;;;;45.47;30.00;;;;;;;12.94;94.54;99857.72;5073104;28;20211;-55
2023/01/22 10:18:45;;;;;;;45.43;31.63;;;;;;;12.97;94.60;99846.59;5070613;28;20194;-55
2023/01/22 10:21:17;;;;;;;48.53;32.23;;;;;;;12.92;95.43;99849.13;5073408;28;20182;-55
2023/01/22 10:23:44;;;;;;;58.83;36.70;;;;;;;12.91;95.14;99857.69;5073239;28;20668;-55
2023/01/22 10:26:16;;;;;;;45.80;33.53;;;;;;;12.87;95.80;99855.06;5072118;28;20672;-55
2023/01/22 10:28:45;;;;;;;47.33;29.90;;;;;;;12.78;96.03;99852.38;5070881;28;20215;-55
2023/01/22 10:31:24;;;;;;;37.77;26.20;;;;;;;12.84;96.66;99855.03;5073756;28;20187;-55
2023/01/22 10:33:57;;;;;;;42.90;31.67;;;;;;;12.70;97.15;99856.56;5070543;28;20450;-55
2023/01/22 10:36:24;;;;;;;36.80;25.73;;;;;;;12.71;96.20;99861.75;5073002;28;20680;-54
2023/01/22 10:39:01;;;;;;;37.03;27.87;;;;;;;12.71;96.18;99855.72;5072903;28;20199;-54
2023/01/22 10:41:30;;;;;;;33.30;25.60;;;;;;;12.74;96.47;99860.91;5072197;28;20225;-55
2023/01/22 10:44:17;;;;;;;31.87;22.83;;;;;;;12.86;96.95;99855.91;5072695;28;20184;-55
2023/01/22 10:46:48;;;;;;;33.87;24.43;;;;;;;12.94;95.84;99856.88;5070926;28;20636;-54
2023/01/22 10:49:17;;;;;;;33.47;23.90;;;;;;;13.14;95.23;99850.28;5072864;28;20203;-54
2023/01/22 10:51:50;;;;;;;28.57;20.80;;;;;;;13.35;94.11;99841.94;5073312;28;20211;-54
2023/01/22 10:54:23;;;;;;;26.90;20.63;;;;;;;13.50;92.91;99840.34;5072917;28;20184;-55
2023/01/22 10:56:51;;;;;;;29.00;21.73;;;;;;;13.18;91.89;99761.75;5073234;28;20241;-54
2023/01/22 10:59:25;;;;;;;33.37;23.80;;;;;;;13.57;90.99;99834.38;5069800;28;20188;-55
2023/01/22 11:01:59;;;;;;;38.53;25.53;;;;;;;13.49;91.55;99825.69;5072477;28;20192;-54
2023/01/22 11:04:28;;;;;;;28.97;20.97;;;;;;;13.52;90.74;99830.91;5070083;28;20198;-54
2023/01/22 11:06:59;;;;;;;26.40;20.17;;;;;;;13.70;90.14;99834.50;5072272;28;20196;-54
2023/01/22 11:09:34;;;;;;;29.77;21.40;;;;;;;13.80;89.11;99838.91;5071914;28;20207;-54
2023/01/22 11:12:09;;;;;;;29.17;20.90;;;;;;;13.76;88.47;99844.91;5070206;28;20637;-59
2023/01/22 11:14:38;;;;;;;29.37;22.17;;;;;;;13.64;87.98;99843.06;5071446;28;20195;-54
2023/01/22 11:17:13;;;;;;;29.93;21.53;;;;;;;13.41;89.29;99847.13;5072737;28;20195;-54
2023/01/22 11:19:45;;;;;;;35.03;24.47;;;;;;;13.44;89.09;99848.03;5073182;28;20196;-54
2023/01/22 11:22:22;;;;;;;28.83;20.83;;;;;;;13.34;88.71;99850.50;5072562;28;20198;-54
2023/01/22 11:24:49;;;;;;;30.00;21.67;;;;;;;13.09;88.69;99789.16;5091834;28;20672;-54
2023/01/22 11:27:33;;;;;;;31.13;21.73;;;;;;;13.53;87.82;99840.38;5090091;28;20194;-54
2023/01/22 11:30:09;;;;;;;34.53;23.30;;;;;;;13.63;87.60;99837.88;5072275;28;20290;-55